Nearby METAR Reports

 

KTAN - Taunton, Massachusetts, USA
Distance from station: W 5mi, 8km
Updated: 03/22/2017 5:52pm
Clear
Clear
 Wind from NW
Wind: NW 13 mph , 20 km/h, Gust: 33 mph , 54 km/h
Temperature: 28°F , -2°C
Wind Chill: 17°F , -8°C
Dew Point: -8°F , -22°C
Humidity: 20%
Barometer: 30.09 inHg , 1019 hPa
Clouds: Clear
Visibility: 10 miles , 16 km
2017/03/22 21:52 KTAN 222152Z AUTO 31011G29KT 10SM CLR M02/M22 A3009 RMK AO2 PK WND 32029/2148 SLP189 T10221222
KPYM - Plymouth, Massachusetts, USA
Distance from station: ENE 10mi, 16km
Updated: 03/22/2017 5:52pm
Clear
Clear
 Wind from NW
Wind: NW 22 mph , 35 km/h, Gust: 38 mph , 61 km/h
Temperature: 27°F , -3°C
Wind Chill: 13°F , -11°C
Dew Point: -6°F , -21°C
Humidity: 24%
Barometer: 30.07 inHg , 1018.3 hPa
Clouds: Clear
Visibility: 10 miles , 16 km
2017/03/22 21:52 KPYM 222152Z AUTO 31019G33KT 10SM CLR M03/M21 A3007 RMK AO2 PK WND 31036/2140 SLP185 T10281211 TSNO
 
KEWB - New Bedford, Massachusetts, USA
Distance from station: S 14mi, 23km
Updated: 03/22/2017 5:53pm
Clear
Clear
 Wind from NW
Wind: NW 14 mph , 22 km/h, Gust: 30 mph , 48 km/h
Temperature: 30°F , -1°C
Wind Chill: 19°F , -7°C
Dew Point: -8°F , -22°C
Humidity: 19%
Barometer: 30.08 inHg , 1018.6 hPa
Clouds: Clear
Visibility: 10 miles , 16 km
2017/03/22 21:53 KEWB 222153Z 32012G26KT 280V350 10SM CLR M01/M22 A3008 RMK AO2 PK WND 30032/2102 SLP186 T10111217
KGHG - Marshfield, Massachusetts, USA
Distance from station: NE 20mi, 31km
Updated: 03/22/2017 5:35pm
Clear
Clear
 Wind from NNW
Wind: NNW 22 mph , 35 km/h, Gust: 35 mph , 56 km/h
Temperature: 28°F , -2°C
Wind Chill: 14°F , -10°C
Dew Point: -6°F , -21°C
Humidity: 22%
Barometer: 30.06 inHg , 1017.9 hPa
Clouds: Clear
Visibility: 10 miles , 16 km
2017/03/22 21:35 KGHG 222135Z AUTO 33019G30KT 300V360 10SM CLR M02/M21 A3006 RMK AO2
 
KOWD - Norwood, Massachusetts, USA
Distance from station: NNW 24mi, 39km
Updated: 03/22/2017 5:53pm
Clear
Clear
 Wind from NW
Wind: NW 26 mph , 43 km/h, Gust: 36 mph , 57 km/h
Temperature: 27°F , -3°C
Wind Chill: 12°F , -11°C
Dew Point: -8°F , -22°C
Humidity: 22%
Barometer: 30.12 inHg , 1020 hPa
Clouds: Clear
Visibility: 10 miles , 16 km
2017/03/22 21:53 KOWD 222153Z 32023G31KT 10SM CLR M03/M22 A3012 RMK AO2 PK WND 30035/2123 SLP199 T10281217
KMQE - East Milton, Massachusetts, USA
Distance from station: NNW 25mi, 40km
Updated: 03/22/2017 5:54pm

 Wind from WNW
Wind: WNW 29 mph , 46 km/h, Gust: 44 mph , 70 km/h
Temperature: 21°F , -6°C
Wind Chill: 3°F , -16°C
Dew Point: -6°F , -21°C
Humidity: 30%
Barometer: 30.03 inHg , 1016.9 hPa
2017/03/22 21:54 KMQE 222154Z AUTO 30025G38KT M06/M21 A3003 RMK AO1 PK WND 30039/2136 SLP189 T10561206
 
KFMH - Falmouth/Otis Ab, Massachusetts, USA
Distance from station: SE 27mi, 44km
Updated: 03/22/2017 5:55pm

 
2017/03/22 21:55 KFMH 222155Z RMK AO2 PWINO FZRANO TSNO WEA
KPVD - Providence/Green, Rhode Island, USA
Distance from station: WSW 29mi, 47km
Updated: 03/22/2017 5:51pm
Few Clouds
Few Clouds
 Wind from NW
Wind: NW 21 mph , 33 km/h, Gust: 37 mph , 59 km/h
Temperature: 30°F , -1°C
Wind Chill: 17°F , -8°C
Dew Point: -6°F , -21°C
Humidity: 20%
Barometer: 30.12 inHg , 1020 hPa
Clouds: Few Clouds
Visibility: 10 miles , 16 km
Cloud details: Few Clouds 7000 ft
2017/03/22 21:51 KPVD 222151Z 32018G32KT 10SM FEW070 M01/M21 A3012 RMK AO2 PK WND 33032/2146 SLP198 T10111211
 
KSFZ - Pawtucket, Rhode Island, USA
Distance from station: W 30mi, 48km
Updated: 03/22/2017 5:56pm
Clear
Clear
 Wind from NW
Wind: NW 17 mph , 28 km/h, Gust: 30 mph , 48 km/h
Temperature: 27°F , -3°C
Wind Chill: 14°F , -10°C
Dew Point: -0°F , -18°C
Humidity: 31%
Barometer: 30.09 inHg , 1019 hPa
Clouds: Clear
Visibility: 10 miles , 16 km
2017/03/22 21:56 KSFZ 222156Z AUTO 32015G26KT 10SM CLR M03/M18 A3009 RMK AO2 PK WND 30030/2106 SLPNO T10281178 FZRANO
KUUU - Newport, Rhode Island, USA
Distance from station: SW 31mi, 50km
Updated: 03/22/2017 5:53pm
Clear
Clear
 Wind from NW
Wind: NW 26 mph , 43 km/h, Gust: 38 mph , 61 km/h
Temperature: 28°F , -2°C
Wind Chill: 13°F , -11°C
Dew Point: -0°F , -18°C
Humidity: 29%
Barometer: 30.09 inHg , 1019 hPa
Clouds: Clear
Visibility: 10 miles , 16 km
2017/03/22 21:53 KUUU 222153Z AUTO 31023G33KT 10SM CLR M02/M18 A3009 RMK AO2 PK WND 31034/2129 SLP188 T10171183
 
KOQU - N. Kingston/Quon, Rhode Island, USA
Distance from station: SW 32mi, 52km
Updated: 03/22/2017 5:50pm
Clear
Clear
 Wind from NW
Wind: NW 17 mph , 28 km/h, Gust: 29 mph , 46 km/h
Temperature: 30°F , -1°C
Wind Chill: 18°F , -8°C
Dew Point: -8°F , -22°C
Humidity: 19%
Barometer: 30.10 inHg , 1019.3 hPa
Clouds: Clear
Visibility: 15 miles , 24 km
2017/03/22 21:50 KOQU 222150Z 32015G25KT 15SM SKC M01/M22 A3010
KBOS - Boston, Massachusetts, USA
Distance from station: N 33mi, 54km
Updated: 03/22/2017 5:54pm
Few Clouds
Few Clouds
 Wind from NW
Wind: NW 23 mph , 37 km/h, Gust: 37 mph , 59 km/h
Temperature: 27°F , -3°C
Wind Chill: 13°F , -11°C
Dew Point: -6°F , -21°C
Humidity: 24%
Barometer: 30.10 inHg , 1019.3 hPa
Clouds: Few Clouds
Visibility: 10 miles , 16 km
Cloud details: Few Clouds 4500 ft
2017/03/22 21:54 KBOS 222154Z 31020G32KT 10SM FEW045 M03/M21 A3010 RMK AO2 PK WND 30037/2119 SLP193 T10281206
 
KHYA - Hyannis, Massachusetts, USA
Distance from station: ESE 37mi, 59km
Updated: 03/22/2017 4:56pm
Clear
Clear
 Wind from NNW
Wind: NNW 16 mph , 26 km/h, Gust: 33 mph , 54 km/h
Temperature: 32°F , 0°C
Wind Chill: 21°F , -6°C
Dew Point: 3°F , -16°C
Humidity: 29%
Barometer: 29.97 inHg , 1014.9 hPa
Clouds: Clear
Visibility: 10 miles , 16 km
2017/03/22 20:56 KHYA 222056Z 33014G29KT 10SM CLR 00/M16 A2997 RMK AO2 PK WND 31030/2006 SLP152 T00001156 51034
KMVY - Marthas Vineyard, Massachusetts, USA
Distance from station: SSE 37mi, 60km
Updated: 03/22/2017 5:53pm
Clear
Clear
 Wind from NW
Wind: NW 22 mph , 35 km/h, Gust: 38 mph , 61 km/h
Temperature: 30°F , -1°C
Wind Chill: 17°F , -8°C
Dew Point: -6°F , -21°C
Humidity: 20%
Barometer: 30.06 inHg , 1017.9 hPa
Clouds: Clear
Visibility: 10 miles , 16 km
2017/03/22 21:53 KMVY 222153Z AUTO 32019G33KT 10SM CLR M01/M21 A3006 RMK AO2 PK WND 32034/2124 SLP178 T10111206 TSNO
 
KPVC - Provincetown, Massachusetts, USA
Distance from station: ENE 38mi, 61km
Updated: 03/22/2017 5:56pm
Clear
Clear
 Wind from NW
Wind: NW 35 mph , 56 km/h, Gust: 45 mph , 72 km/h
Temperature: 27°F , -3°C
Wind Chill: 10°F , -12°C
Dew Point: 7°F , -14°C
Humidity: 43%
Barometer: 30.06 inHg , 1017.9 hPa
Clouds: Clear
Visibility: 10 miles , 16 km
2017/03/22 21:56 KPVC 222156Z AUTO 32030G39KT 10SM CLR M03/M14 A3006 RMK AO2 PK WND 32040/2122 SLP179 T10281144 FZRANO
KBED - Bedford, Massachusetts, USA
Distance from station: NNW 44mi, 72km
Updated: 03/22/2017 4:56pm
Clear
Clear
 Wind from NW
Wind: NW 23 mph , 37 km/h, Gust: 41 mph , 67 km/h
Temperature: 27°F , -3°C
Wind Chill: 13°F , -11°C
Dew Point: -6°F , -21°C
Humidity: 24%
Barometer: 30.08 inHg , 1018.6 hPa
Clouds: Clear
Visibility: 10 miles , 16 km
2017/03/22 20:56 KBED 222056Z 31020G36KT 10SM CLR M03/M21 A3008 RMK AO2 PK WND 30038/2034 SLP201 T10331211 53025
 
KBVY - Beverly, Massachusetts, USA
Distance from station: 0 48mi, 77km
Updated: 03/22/2017 5:53pm
Clear
Clear
 Wind from NW
Wind: NW 29 mph , 46 km/h, Gust: 47 mph , 76 km/h
Temperature: 25°F , -4°C
Wind Chill: 8°F , -13°C
Dew Point: -6°F , -21°C
Humidity: 26%
Barometer: 30.08 inHg , 1018.6 hPa
Clouds: Clear
Visibility: 10 miles , 16 km
2017/03/22 21:53 KBVY 222153Z 31025G41KT 10SM CLR M04/M21 A3008 RMK AO2 PK WND 32043/2105 SLP183 T10441206
KCQX - Chatham, Massachusetts, USA
Distance from station: ESE 49mi, 80km
Updated: 03/22/2017 5:52pm
Clear
Clear
 Wind from NNW
Wind: NNW 14 mph , 22 km/h, Gust: 37 mph , 59 km/h
Temperature: 28°F , -2°C
Wind Chill: 17°F , -8°C
Dew Point: -0°F , -18°C
Humidity: 29%
Barometer: 30.04 inHg , 1017.3 hPa
Clouds: Clear
Visibility: 10 miles , 16 km
2017/03/22 21:52 KCQX 222152Z AUTO 33012G32KT 10SM CLR M02/M18 A3004 RMK AO2 PK WND 33032/2146 SLP175 T10221178